Aérodrome :
LOGIN :

S'inscrire | Disclaimer

   EN    FR    IT 

 










Légende :    VFR   VFR Marginal   IFR   IFR Intensif   IFR Très Intensif
Visi : 
Plafond : 
>= 8 km
>= 3000ft
5 à 8 km
1000 à 3000 ft
1500m à 5 km
500 à 1000 ft
800 à 1500m
200 à 500 ft
< 800m
< 200 ft
Symboles :   Orages  Brouillard  Fortes neiges  Fortes précipitations  Vent > 20 kt
SIGMETs :   Divers  Orages  Givrage  Turbulence  Onde Orograph.  Cendres Volcan.







- Altitude de l'aérodrome : 28 ft
- Code IATA : SOZ
- Voir les cartes d'approche


LFKS - Solenzara

DERNIER METAR :
  • 100500Z AUTO 27017G30KT 240V310 CAVOK 15/02 Q1013

METARs EXPIRÉS :
  • 100430Z AUTO 28017G37KT 250V320 CAVOK 15/02 Q1013
  • 100400Z AUTO 27018G33KT 240V330 CAVOK 15/02 Q1013
  • 100330Z AUTO 28019G33KT 250V320 CAVOK 15/01 Q1013
  • 100300Z AUTO 28021G34KT 250V320 CAVOK 16/02 Q1013
  • 100230Z AUTO 28018G36KT 250V320 CAVOK 16/02 Q1013

Prévision TAF périmée.
Pas de NOTAMs connus pour ce terrain.
5 SIGMETs publiés pour la FIR Marseille (LFMM) :
 
Turbulence forte
LFMM SIGMET 5 VALID 100600/101000 LFPW
LFMM MARSEILLE FIR/UIR SEV TURB FCST N OF N4415 AND E OF E00615 FL330/390 STNR WKN=
Turbulence forte
LFMM SIGMET 4 VALID 100200/100600 LFPW
LFMM MARSEILLE FIR/UIR SEV TURB FCST WI N4630 E00545 - N4630 E00700 - N4400 E00700 - N4345 E00630 - N4630 E00545 FL330/380 STNR NC=
Turbulence forte
LFMM SIGMET 3 VALID 100200/100600 LFPW
LFMM MARSEILLE FIR/UIR SEV TURB FCST WI N4615 E00700 - N4430 E00700 - N4430 E00500 - N4615 E00700 SFC/FL100 STNR NC=
Turbulence forte
LFMM SIGMET 2 VALID 100200/100600 LFPW
LFMM MARSEILLE FIR/UIR SEV TURB FCST WI N4300 E00945 - N4115 E00945 - N4115 E00800 - N4245 E00545 - N4330 E00530 - N4300 E00945 SFC/FL050 STNR NC=
Turbulence forte
LFMM SIGMET 1 VALID 100200/100600 LFPW
LFMM MARSEILLE FIR/UIR SEV TURB FCST WI N4215 E00300 - N4215 E00230 - N4345 E00245 - N4515 E00400 - N4445 E00445 - N4215 E00300 SFC/FL080 STNR NC=



MET'MAP, la Météo Aéronautique d'un coup d'oeil ! - Copyright ORBIFLY Décembre 2007 - Disclaimer

ORBIFLY MET'MAP TEAM :

Programmation & Développement : Alexandra Zaïnal
Conception & Développement : Baudouin d'Aumeries
Co-Programmation & Développement : Marc-Olivier Méhu
Soutien technique & logistique : Manuel Goepfert

Contact : metmap@orbifly.com




SOURCES & CREDITS :

   NOAA